createdAt,value
2018-03-11T00:01:16.966Z,1001.57
2018-03-11T00:02:39.214Z,1001.5
2018-03-11T00:04:00.856Z,1001.5
2018-03-11T00:05:22.492Z,1001.56
2018-03-11T00:06:44.702Z,1001.57
2018-03-11T00:08:06.813Z,1001.53
2018-03-11T00:09:28.981Z,1001.58
2018-03-11T00:10:50.376Z,1001.55
2018-03-11T00:12:12.529Z,1001.58
2018-03-11T00:13:34.149Z,1001.56
2018-03-11T00:14:55.772Z,1001.59
2018-03-11T00:16:17.934Z,1001.55
2018-03-11T00:17:39.836Z,1001.53
2018-03-11T00:19:01.564Z,1001.54
2018-03-11T00:20:23.304Z,1001.53
2018-03-11T00:21:45.205Z,1001.5
2018-03-11T00:23:06.566Z,1001.52
2018-03-11T00:24:28.196Z,1001.52
2018-03-11T00:25:50.079Z,1001.51
2018-03-11T00:27:12.254Z,1001.5
2018-03-11T00:28:34.208Z,1001.52
2018-03-11T00:29:55.910Z,1001.48
2018-03-11T00:31:17.541Z,1001.44
2018-03-11T00:32:39.754Z,1001.48
2018-03-11T00:34:01.411Z,1001.44
2018-03-11T00:35:23.773Z,1001.45
2018-03-11T00:36:45.392Z,1001.44
2018-03-11T00:38:06.791Z,1001.41
2018-03-11T00:39:27.995Z,1001.4
2018-03-11T00:40:49.430Z,1001.39
2018-03-11T00:42:11.303Z,1001.35
2018-03-11T00:43:33.463Z,1001.37
2018-03-11T00:44:55.490Z,1001.37
2018-03-11T00:46:17.101Z,1001.35
2018-03-11T00:47:39.050Z,1001.34
2018-03-11T00:49:00.742Z,1001.35
2018-03-11T00:50:22.914Z,1001.36
2018-03-11T00:51:44.580Z,1001.38
2018-03-11T00:53:06.736Z,1001.34
2018-03-11T00:54:28.651Z,1001.33
2018-03-11T00:55:50.559Z,1001.3
2018-03-11T00:57:12.271Z,1001.35
2018-03-11T00:58:34.150Z,1001.32
2018-03-11T00:59:56.123Z,1001.37
2018-03-11T01:01:17.590Z,1001.33
2018-03-11T01:02:39.213Z,1001.34
2018-03-11T01:04:01.140Z,1001.32
2018-03-11T01:05:23.113Z,1001.31
2018-03-11T01:06:45.020Z,1001.31
2018-03-11T01:08:06.612Z,1001.29
2018-03-11T01:09:28.203Z,1001.28
2018-03-11T01:10:49.672Z,1001.28
2018-03-11T01:12:11.591Z,1001.28
2018-03-11T01:13:33.259Z,1001.27
2018-03-11T01:14:54.895Z,1001.23
2018-03-11T01:16:16.819Z,1001.21
2018-03-11T01:17:38.734Z,1001.19
2018-03-11T01:19:00.884Z,1001.16
2018-03-11T01:20:22.512Z,1001.14
2018-03-11T01:21:44.653Z,1001.18
2018-03-11T01:23:06.515Z,1001.18
2018-03-11T01:24:28.241Z,1001.13
2018-03-11T01:25:50.142Z,1001.16
2018-03-11T01:27:12.493Z,1001.16
2018-03-11T01:28:34.442Z,1001.13
2018-03-11T01:29:56.370Z,1001.14
2018-03-11T01:31:18.264Z,1001.1
2018-03-11T01:32:40.131Z,1001.11
2018-03-11T01:34:01.475Z,1001.11
2018-03-11T01:35:23.137Z,1001.07
2018-03-11T01:36:45.075Z,1001.04
2018-03-11T01:38:06.942Z,1001.07
2018-03-11T01:39:29.101Z,1001.02
2018-03-11T01:40:51.251Z,1000.99
2018-03-11T01:42:13.401Z,1001
2018-03-11T01:43:35.551Z,1000.99
2018-03-11T01:44:57.681Z,1001
2018-03-11T01:46:19.861Z,1000.98
2018-03-11T01:47:41.782Z,1000.98
2018-03-11T01:49:03.929Z,1000.93
2018-03-11T01:50:26.132Z,1000.96
2018-03-11T01:51:47.492Z,1000.94
2018-03-11T01:53:09.733Z,1000.96
2018-03-11T01:54:31.632Z,1000.93
2018-03-11T01:55:53.762Z,1000.94
2018-03-11T01:57:15.401Z,1000.9
2018-03-11T01:58:37.343Z,1000.92
2018-03-11T01:59:59.208Z,1000.95
2018-03-11T02:01:53.322Z,1000.89
2018-03-11T02:03:15.451Z,1000.86
2018-03-11T02:04:37.592Z,1000.89
2018-03-11T02:05:58.762Z,1000.88
2018-03-11T02:07:20.935Z,1000.86
2018-03-11T02:08:42.923Z,1000.83
2018-03-11T02:10:04.551Z,1000.87
2018-03-11T02:11:25.423Z,1000.86
2018-03-11T02:12:46.766Z,1000.85
2018-03-11T02:14:08.665Z,1000.82
2018-03-11T02:15:30.329Z,1000.81
2018-03-11T02:16:52.200Z,1000.82
2018-03-11T02:18:13.554Z,1000.78
2018-03-11T02:19:35.760Z,1000.77
2018-03-11T02:20:57.912Z,1000.73
2018-03-11T02:22:20.026Z,1000.76
2018-03-11T02:23:41.889Z,1000.71
2018-03-11T02:25:03.476Z,1000.72
2018-03-11T02:26:25.343Z,1000.74
2018-03-11T02:27:47.555Z,1000.72
2018-03-11T02:29:09.444Z,1000.69
2018-03-11T02:30:31.379Z,1000.7
2018-03-11T02:31:53.058Z,1000.69
2018-03-11T02:33:14.772Z,1000.69
2018-03-11T02:34:36.388Z,1000.65
2018-03-11T02:35:58.535Z,1000.66
2018-03-11T02:37:20.433Z,1000.68
2018-03-11T02:38:42.326Z,1000.63
2018-03-11T02:40:03.707Z,1000.67
2018-03-11T02:41:25.970Z,1000.64
2018-03-11T02:42:48.114Z,1000.63
2018-03-11T02:44:10.280Z,1000.61
2018-03-11T02:45:32.163Z,1000.62
2018-03-11T02:46:54.043Z,1000.61
2018-03-11T02:48:15.662Z,1000.59
2018-03-11T02:49:36.881Z,1000.62
2018-03-11T02:50:58.751Z,1000.6
2018-03-11T02:52:20.351Z,1000.61
2018-03-11T02:53:41.691Z,1000.62
2018-03-11T02:55:03.582Z,1000.64
2018-03-11T02:56:25.455Z,1000.63
2018-03-11T02:57:47.432Z,1000.61
2018-03-11T02:59:09.349Z,1000.56
2018-03-11T03:00:30.962Z,1000.6
2018-03-11T03:01:52.603Z,1000.61
2018-03-11T03:03:14.504Z,1000.58
2018-03-11T03:04:36.823Z,1000.58
2018-03-11T03:05:58.985Z,1000.56
2018-03-11T03:07:21.120Z,1000.51
2018-03-11T03:08:43.025Z,1000.54
2018-03-11T03:10:03.865Z,1000.49
2018-03-11T03:11:25.721Z,1000.45
2018-03-11T03:12:47.094Z,1000.44
2018-03-11T03:14:09.011Z,1000.42
2018-03-11T03:15:30.889Z,1000.42
2018-03-11T03:16:52.901Z,1000.39
2018-03-11T03:18:15.202Z,1000.37
2018-03-11T03:19:36.568Z,1000.34
2018-03-11T03:20:58.431Z,1000.36
2018-03-11T03:22:20.656Z,1000.3
2018-03-11T03:23:42.112Z,1000.29
2018-03-11T03:25:03.740Z,1000.23
2018-03-11T03:26:25.411Z,1000.24
2018-03-11T03:27:47.296Z,1000.18
2018-03-11T03:29:09.196Z,1000.22
2018-03-11T03:30:31.323Z,1000.18
2018-03-11T03:31:53.509Z,1000.18
2018-03-11T03:33:15.443Z,1000.14
2018-03-11T03:34:37.359Z,1000.13
2018-03-11T03:35:59.238Z,1000.17
2018-03-11T03:37:20.858Z,1000.15
2018-03-11T03:38:42.195Z,1000.16
2018-03-11T03:40:04.048Z,1000.15
2018-03-11T03:41:26.334Z,1000.16
2018-03-11T03:42:48.015Z,1000.12
2018-03-11T03:44:09.634Z,1000.07
2018-03-11T03:45:31.493Z,1000.08
2018-03-11T03:46:53.258Z,1000.03
2018-03-11T03:48:14.614Z,1000.02
2018-03-11T03:49:36.313Z,1000.01
2018-03-11T03:50:57.672Z,1000.04
2018-03-11T03:52:19.275Z,1000.01
2018-03-11T03:53:40.900Z,999.96
2018-03-11T03:55:02.526Z,999.93
2018-03-11T03:56:24.669Z,999.96
2018-03-11T03:57:46.542Z,999.98
2018-03-11T03:59:08.434Z,999.95
2018-03-11T04:00:30.400Z,999.95
2018-03-11T04:01:52.265Z,999.98
2018-03-11T04:03:14.161Z,999.93
2018-03-11T04:04:36.012Z,999.92
2018-03-11T04:05:57.676Z,999.96
2018-03-11T04:07:19.561Z,999.97
2018-03-11T04:08:40.878Z,999.93
2018-03-11T04:10:02.772Z,999.93
2018-03-11T04:11:24.677Z,999.91
2018-03-11T04:12:46.285Z,999.94
2018-03-11T04:14:08.514Z,999.97
2018-03-11T04:15:30.407Z,999.99
2018-03-11T04:16:52.292Z,999.93
2018-03-11T04:18:14.163Z,999.92
2018-03-11T04:19:35.268Z,999.88
2018-03-11T04:20:57.116Z,999.89
2018-03-11T04:22:19.276Z,999.92
2018-03-11T04:23:40.622Z,999.9
2018-03-11T04:25:01.971Z,999.94
2018-03-11T04:26:23.588Z,999.94
2018-03-11T04:27:45.073Z,999.9
2018-03-11T04:29:07.212Z,999.89
2018-03-11T04:30:29.093Z,999.87
2018-03-11T04:31:51.386Z,999.87
2018-03-11T04:33:13.281Z,999.83
2018-03-11T04:34:35.497Z,999.82
2018-03-11T04:35:57.099Z,999.82
2018-03-11T04:37:18.745Z,999.85
2018-03-11T04:38:40.625Z,999.81
2018-03-11T04:40:02.248Z,999.83
2018-03-11T04:41:24.139Z,999.78
2018-03-11T04:42:45.747Z,999.78
2018-03-11T04:44:07.459Z,999.72
2018-03-11T04:45:29.332Z,999.75
2018-03-11T04:46:50.668Z,999.72
2018-03-11T04:48:12.562Z,999.72
2018-03-11T04:49:33.942Z,999.71
2018-03-11T04:50:55.825Z,999.65
2018-03-11T04:52:17.413Z,999.67
2018-03-11T04:53:39.025Z,999.67
2018-03-11T04:55:00.887Z,999.69
2018-03-11T04:56:22.502Z,999.69
2018-03-11T04:57:44.111Z,999.66
2018-03-11T04:59:05.720Z,999.65
2018-03-11T05:00:27.318Z,999.66
2018-03-11T05:01:48.672Z,999.64
2018-03-11T05:03:10.914Z,999.67
2018-03-11T05:04:32.826Z,999.67
2018-03-11T05:05:55.001Z,999.71
2018-03-11T05:07:16.863Z,999.7
2018-03-11T05:08:38.684Z,999.72
2018-03-11T05:10:00.301Z,999.73
2018-03-11T05:11:22.213Z,999.72
2018-03-11T05:12:44.362Z,999.73
2018-03-11T05:14:06.014Z,999.71
2018-03-11T05:15:27.796Z,999.69
2018-03-11T05:16:49.397Z,999.71
2018-03-11T05:18:11.296Z,999.69
2018-03-11T05:19:32.692Z,999.68
2018-03-11T05:20:54.837Z,999.67
2018-03-11T05:22:17.073Z,999.68
2018-03-11T05:23:39.002Z,999.63
2018-03-11T05:25:00.606Z,999.67
2018-03-11T05:26:22.313Z,999.7
2018-03-11T05:27:43.913Z,999.72
2018-03-11T05:29:05.770Z,999.7
2018-03-11T05:30:27.367Z,999.69
2018-03-11T05:31:48.980Z,999.69
2018-03-11T05:33:10.903Z,999.68
2018-03-11T05:34:32.815Z,999.67
2018-03-11T05:35:54.986Z,999.67
2018-03-11T05:37:16.584Z,999.69
2018-03-11T05:38:37.923Z,999.68
2018-03-11T05:39:59.592Z,999.65
2018-03-11T05:41:21.273Z,999.63
2018-03-11T05:42:42.623Z,999.62
2018-03-11T05:44:03.712Z,999.64
2018-03-11T05:45:25.890Z,999.56
2018-03-11T05:46:48.061Z,999.61
2018-03-11T05:48:09.409Z,999.6
2018-03-11T05:49:31.294Z,999.59
2018-03-11T05:50:52.647Z,999.57
2018-03-11T05:52:14.772Z,999.58
2018-03-11T05:53:36.643Z,999.58
2018-03-11T05:54:58.761Z,999.58
2018-03-11T05:56:20.385Z,999.59
2018-03-11T05:57:42.396Z,999.62
2018-03-11T05:59:03.749Z,999.58
2018-03-11T06:00:25.487Z,999.57
2018-03-11T06:01:47.366Z,999.55
2018-03-11T06:03:09.301Z,999.57
2018-03-11T06:04:31.437Z,999.63
2018-03-11T06:05:53.582Z,999.62
2018-03-11T06:07:15.214Z,999.6
2018-03-11T06:08:36.859Z,999.55
2018-03-11T06:09:58.725Z,999.52
2018-03-11T06:11:20.084Z,999.58
2018-03-11T06:12:41.480Z,999.62
2018-03-11T06:14:03.352Z,999.55
2018-03-11T06:15:25.225Z,999.53
2018-03-11T06:16:46.814Z,999.52
2018-03-11T06:18:07.911Z,999.51
2018-03-11T06:19:29.874Z,999.53
2018-03-11T06:20:51.765Z,999.53
2018-03-11T06:22:13.455Z,999.49
2018-03-11T06:23:35.327Z,999.5
2018-03-11T06:24:56.951Z,999.53
2018-03-11T06:26:18.613Z,999.48
2018-03-11T06:27:40.573Z,999.48
2018-03-11T06:29:02.465Z,999.48
2018-03-11T06:30:24.458Z,999.5
2018-03-11T06:31:46.359Z,999.46
2018-03-11T06:33:08.025Z,999.42
2018-03-11T06:34:30.000Z,999.42
2018-03-11T06:35:51.786Z,999.37
2018-03-11T06:37:13.597Z,999.38
2018-03-11T06:38:35.856Z,999.35
2018-03-11T06:39:57.783Z,999.34
2018-03-11T06:41:19.663Z,999.34
2018-03-11T06:42:41.413Z,999.37
2018-03-11T06:44:03.292Z,999.31
2018-03-11T06:45:25.446Z,999.31
2018-03-11T06:46:47.324Z,999.32
2018-03-11T06:48:09.212Z,999.3
2018-03-11T06:49:31.375Z,999.29
2018-03-11T06:50:53.611Z,999.24
2018-03-11T06:52:15.545Z,999.24
2018-03-11T06:53:37.596Z,999.25
2018-03-11T06:54:59.532Z,999.23
2018-03-11T06:56:21.433Z,999.32
2018-03-11T06:57:43.593Z,999.31
2018-03-11T06:59:05.512Z,999.36
2018-03-11T07:00:27.132Z,999.42
2018-03-11T07:01:49.267Z,999.43
2018-03-11T07:03:11.481Z,999.43
2018-03-11T07:04:33.112Z,999.42
2018-03-11T07:05:55.329Z,999.46
2018-03-11T07:07:16.954Z,999.43
2018-03-11T07:08:38.592Z,999.48
2018-03-11T07:10:00.842Z,999.44
2018-03-11T07:11:22.490Z,999.44
2018-03-11T07:12:44.372Z,999.47
2018-03-11T07:14:06.542Z,999.49
2018-03-11T07:15:28.442Z,999.49
2018-03-11T07:16:50.339Z,999.46
2018-03-11T07:18:11.820Z,999.48
2018-03-11T07:19:34.026Z,999.44
2018-03-11T07:20:55.909Z,999.42
2018-03-11T07:22:17.795Z,999.44
2018-03-11T07:23:39.933Z,999.41
2018-03-11T07:25:02.218Z,999.44
2018-03-11T07:26:23.335Z,999.42
2018-03-11T07:27:45.111Z,999.43
2018-03-11T07:29:06.729Z,999.44
2018-03-11T07:30:28.394Z,999.37
2018-03-11T07:31:50.527Z,999.29
2018-03-11T07:33:11.902Z,999.32
2018-03-11T07:34:33.792Z,999.35
2018-03-11T07:35:56.044Z,999.33
2018-03-11T07:37:18.324Z,999.3
2018-03-11T07:38:39.704Z,999.29
2018-03-11T07:40:01.803Z,999.27
2018-03-11T07:41:23.538Z,999.3
2018-03-11T07:42:45.204Z,999.24
2018-03-11T07:44:07.362Z,999.29
2018-03-11T07:45:29.322Z,999.28
2018-03-11T07:46:51.070Z,999.29
2018-03-11T07:48:12.687Z,999.3
2018-03-11T07:49:34.064Z,999.3
2018-03-11T07:50:56.063Z,999.24
2018-03-11T07:52:17.698Z,999.23
2018-03-11T07:53:39.321Z,999.19
2018-03-11T07:55:00.431Z,999.22
2018-03-11T07:56:22.581Z,999.13
2018-03-11T07:57:44.826Z,999.14
2018-03-11T07:59:06.802Z,999.1
2018-03-11T08:00:28.428Z,999.07
2018-03-11T08:01:50.094Z,999.04
2018-03-11T08:03:11.744Z,999.09
2018-03-11T08:04:34.001Z,999.12
2018-03-11T08:05:56.300Z,999.15
2018-03-11T08:07:18.468Z,999.14
2018-03-11T08:08:40.712Z,999.09
2018-03-11T08:10:02.652Z,999
2018-03-11T08:11:24.808Z,999
2018-03-11T08:12:46.820Z,999.05
2018-03-11T08:14:08.990Z,999.04
2018-03-11T08:15:30.647Z,999.09
2018-03-11T08:16:52.560Z,999.12
2018-03-11T08:18:14.262Z,999.06
2018-03-11T08:19:36.522Z,999.04
2018-03-11T08:20:58.396Z,999.05
2018-03-11T08:22:20.360Z,999.1
2018-03-11T08:23:42.032Z,999.08
2018-03-11T08:25:03.402Z,999.14
2018-03-11T08:26:25.393Z,999.13
2018-03-11T08:27:47.004Z,999.06
2018-03-11T08:29:08.912Z,999.1
2018-03-11T08:30:30.563Z,999.07
2018-03-11T08:31:51.931Z,999.09
2018-03-11T08:33:14.000Z,999.03
2018-03-11T08:34:35.706Z,999.01
2018-03-11T08:35:57.352Z,998.91
2018-03-11T08:37:19.094Z,998.87
2018-03-11T08:38:40.223Z,998.82
2018-03-11T08:40:02.423Z,998.75
2018-03-11T08:41:23.846Z,998.75
2018-03-11T08:42:45.503Z,998.7
2018-03-11T08:44:07.772Z,998.68
2018-03-11T08:45:29.930Z,998.66
2018-03-11T08:46:51.845Z,998.64
2018-03-11T08:48:14.057Z,998.6
2018-03-11T08:49:36.043Z,998.58
2018-03-11T08:50:57.461Z,998.56
2018-03-11T08:52:19.670Z,998.52
2018-03-11T08:53:41.888Z,998.45
2018-03-11T08:55:04.444Z,998.41
2018-03-11T08:56:26.364Z,998.46
2018-03-11T08:57:48.561Z,998.51
2018-03-11T08:59:10.614Z,998.54
2018-03-11T09:00:32.894Z,998.63
2018-03-11T09:01:55.049Z,998.67
2018-03-11T09:03:16.928Z,998.67
2018-03-11T09:04:38.862Z,998.63
2018-03-11T09:06:01.078Z,998.61
2018-03-11T09:07:22.977Z,998.59
2018-03-11T09:08:44.898Z,998.51
2018-03-11T09:10:07.132Z,998.51
2018-03-11T09:11:29.272Z,998.53
2018-03-11T09:12:51.421Z,998.57
2018-03-11T09:14:13.311Z,998.56
2018-03-11T09:15:35.604Z,998.58
2018-03-11T09:16:57.493Z,998.59
2018-03-11T09:18:19.382Z,998.68
2018-03-11T09:19:41.585Z,998.73
2018-03-11T09:21:03.591Z,998.72
2018-03-11T09:22:25.470Z,998.78
2018-03-11T09:23:47.266Z,998.78
2018-03-11T09:25:09.162Z,998.81
2018-03-11T09:26:31.047Z,998.79
2018-03-11T09:27:52.930Z,998.8
2018-03-11T09:29:14.583Z,998.79
2018-03-11T09:30:36.210Z,998.74
2018-03-11T09:31:57.549Z,998.72
2018-03-11T09:33:19.187Z,998.67
2018-03-11T09:34:40.799Z,998.63
2018-03-11T09:36:02.592Z,998.61
2018-03-11T09:37:24.221Z,998.57
2018-03-11T09:38:46.113Z,998.52
2018-03-11T09:40:08.318Z,998.47
2018-03-11T09:41:29.972Z,998.39
2018-03-11T09:42:51.348Z,998.3
2018-03-11T09:44:13.535Z,998.28
2018-03-11T09:45:35.770Z,998.26
2018-03-11T09:46:57.815Z,998.28
2018-03-11T09:48:19.870Z,998.31
2018-03-11T09:49:41.782Z,998.26
2018-03-11T09:51:03.184Z,998.21
2018-03-11T09:52:24.622Z,998.19
2018-03-11T09:53:46.704Z,998.14
2018-03-11T09:55:08.625Z,998.15
2018-03-11T09:56:30.524Z,998.18
2018-03-11T09:57:52.650Z,998.17
2018-03-11T09:59:14.283Z,998.14
2018-03-11T10:00:36.432Z,998.13
2018-03-11T10:01:58.603Z,998.05
2018-03-11T10:03:20.500Z,998.02
2018-03-11T10:04:42.449Z,998.02
2018-03-11T10:06:03.569Z,997.99
2018-03-11T10:07:25.755Z,997.97
2018-03-11T10:08:47.651Z,998.05
2018-03-11T10:10:09.904Z,998.07
2018-03-11T10:11:31.977Z,998.11
2018-03-11T10:12:53.883Z,998.06
2018-03-11T10:14:15.603Z,998.02
2018-03-11T10:15:37.241Z,998.07
2018-03-11T10:16:58.890Z,998.06
2018-03-11T10:18:20.815Z,998.04
2018-03-11T10:19:42.775Z,998.1
2018-03-11T10:21:04.944Z,998.18
2018-03-11T10:22:26.862Z,998.19
2018-03-11T10:23:48.788Z,998.26
2018-03-11T10:25:10.537Z,998.23
2018-03-11T10:26:31.914Z,998.26
2018-03-11T10:27:53.832Z,998.31
2018-03-11T10:29:15.479Z,998.34
2018-03-11T10:30:37.135Z,998.32
2018-03-11T10:31:58.611Z,998.34
2018-03-11T10:33:19.983Z,998.36
2018-03-11T10:34:42.028Z,998.38
2018-03-11T10:36:04.099Z,998.39
2018-03-11T10:37:26.019Z,998.37
2018-03-11T10:38:48.071Z,998.33
2018-03-11T10:40:10.010Z,998.28
2018-03-11T10:41:31.902Z,998.23
2018-03-11T10:42:54.142Z,998.17
2018-03-11T10:44:15.866Z,998.06
2018-03-11T10:45:37.852Z,998.04
2018-03-11T10:46:59.486Z,998
2018-03-11T10:48:21.400Z,997.92
2018-03-11T10:49:43.281Z,997.91
2018-03-11T10:51:05.012Z,997.83
2018-03-11T10:52:26.251Z,997.83
2018-03-11T10:53:48.419Z,997.79
2018-03-11T10:55:10.314Z,997.73
2018-03-11T10:56:32.123Z,997.75
2018-03-11T10:57:53.781Z,997.75
2018-03-11T10:59:15.692Z,997.57
2018-03-11T11:00:37.724Z,997.63
2018-03-11T11:01:59.764Z,997.59
2018-03-11T11:03:22.272Z,997.6
2018-03-11T11:04:44.657Z,997.53
2018-03-11T11:06:06.848Z,997.58
2018-03-11T11:07:28.834Z,997.56
2018-03-11T11:08:50.776Z,997.51
2018-03-11T11:10:12.424Z,997.52
2018-03-11T11:11:34.346Z,997.56
2018-03-11T11:12:56.608Z,997.53
2018-03-11T11:14:18.571Z,997.49
2018-03-11T11:15:40.500Z,997.45
2018-03-11T11:17:01.873Z,997.45
2018-03-11T11:18:23.788Z,997.46
2018-03-11T11:19:45.790Z,997.48
2018-03-11T11:21:07.591Z,997.46
2018-03-11T11:22:29.525Z,997.39
2018-03-11T11:23:51.680Z,997.43
2018-03-11T11:25:13.625Z,997.49
2018-03-11T11:26:36.024Z,997.48
2018-03-11T11:27:57.922Z,997.57
2018-03-11T11:29:20.141Z,997.62
2018-03-11T11:30:42.349Z,997.67
2018-03-11T11:32:04.372Z,997.68
2018-03-11T11:33:26.523Z,997.69
2018-03-11T11:34:47.892Z,997.6
2018-03-11T11:36:09.839Z,997.58
2018-03-11T11:37:32.058Z,997.53
2018-03-11T11:38:54.003Z,997.42
2018-03-11T11:40:16.401Z,997.42
2018-03-11T11:41:38.643Z,997.4
2018-03-11T11:43:00.805Z,997.42
2018-03-11T11:44:22.876Z,997.39
2018-03-11T11:45:44.770Z,997.4
2018-03-11T11:47:06.709Z,997.42
2018-03-11T11:48:28.604Z,997.42
2018-03-11T11:49:50.810Z,997.38
2018-03-11T11:51:12.741Z,997.37
2018-03-11T11:52:34.852Z,997.38
2018-03-11T11:53:57.064Z,997.41
2018-03-11T11:55:19.257Z,997.43
2018-03-11T11:56:40.909Z,997.41
2018-03-11T11:58:02.856Z,997.42
2018-03-11T11:59:24.558Z,997.27
2018-03-11T12:00:46.839Z,997.24
2018-03-11T12:02:09.031Z,997.2
2018-03-11T12:03:30.943Z,997.21
2018-03-11T12:04:53.119Z,997.14
2018-03-11T12:06:14.784Z,997.09
2018-03-11T12:07:36.502Z,997.09
2018-03-11T12:08:58.462Z,997.11
2018-03-11T12:10:20.136Z,997.04
2018-03-11T12:11:42.317Z,997.05
2018-03-11T12:13:04.614Z,996.97
2018-03-11T12:14:26.545Z,996.96
2018-03-11T12:15:48.834Z,996.94
2018-03-11T12:17:10.476Z,996.95
2018-03-11T12:18:31.580Z,996.94
2018-03-11T12:19:53.339Z,996.89
2018-03-11T12:21:15.274Z,996.95
2018-03-11T12:22:37.501Z,996.9
2018-03-11T12:23:59.167Z,996.93
2018-03-11T12:25:20.904Z,996.94
2018-03-11T12:26:42.286Z,996.95
2018-03-11T12:28:04.173Z,996.93
2018-03-11T12:29:26.104Z,996.89
2018-03-11T12:30:48.079Z,996.89
2018-03-11T12:32:09.759Z,996.84
2018-03-11T12:33:31.453Z,996.79
2018-03-11T12:34:53.361Z,996.79
2018-03-11T12:36:15.081Z,996.71
2018-03-11T12:37:36.822Z,996.69
2018-03-11T12:38:58.508Z,996.66
2018-03-11T12:40:20.475Z,996.58
2018-03-11T12:41:42.491Z,996.56
2018-03-11T12:43:04.436Z,996.58
2018-03-11T12:44:26.383Z,996.48
2018-03-11T12:45:48.603Z,996.54
2018-03-11T12:47:10.873Z,996.53
2018-03-11T12:48:32.846Z,996.47
2018-03-11T12:49:54.784Z,996.44
2018-03-11T12:51:16.966Z,996.42
2018-03-11T12:52:38.723Z,996.36
2018-03-11T12:54:00.319Z,996.34
2018-03-11T12:55:22.541Z,996.31
2018-03-11T12:56:44.226Z,996.26
2018-03-11T12:58:05.920Z,996.27
2018-03-11T12:59:27.853Z,996.31
2018-03-11T13:00:49.509Z,996.33
2018-03-11T13:02:11.555Z,996.35
2018-03-11T13:03:33.766Z,996.25
2018-03-11T13:04:55.715Z,996.27
2018-03-11T13:06:17.698Z,996.26
2018-03-11T13:07:39.732Z,996.22
2018-03-11T13:09:01.148Z,996.27
2018-03-11T13:10:22.243Z,996.22
2018-03-11T13:11:44.428Z,996.2
2018-03-11T13:13:06.599Z,996.16
2018-03-11T13:14:28.018Z,996.2
2018-03-11T13:15:50.199Z,996.2
2018-03-11T13:17:11.841Z,996.12
2018-03-11T13:18:33.485Z,996.12
2018-03-11T13:19:54.873Z,996.09
2018-03-11T13:21:16.223Z,996.05
2018-03-11T13:22:38.045Z,996.1
2018-03-11T13:24:00.223Z,996.08
2018-03-11T13:25:22.443Z,996.1
2018-03-11T13:26:44.682Z,996.12
2018-03-11T13:28:06.850Z,996.07
2018-03-11T13:29:28.755Z,996.07
2018-03-11T13:30:50.944Z,996.05
2018-03-11T13:32:13.184Z,996.02
2018-03-11T13:33:35.142Z,996.07
2018-03-11T13:34:57.333Z,996.06
2018-03-11T13:36:19.292Z,996.01
2018-03-11T13:37:41.467Z,995.99
2018-03-11T13:39:03.383Z,995.97
2018-03-11T13:40:25.567Z,996
2018-03-11T13:41:48.063Z,995.99
2018-03-11T13:43:10.085Z,996.01
2018-03-11T13:44:32.324Z,996.03
2018-03-11T13:45:54.537Z,996.01
2018-03-11T13:47:16.716Z,995.99
2018-03-11T13:48:39.003Z,995.99
2018-03-11T13:50:00.914Z,995.94
2018-03-11T13:51:23.095Z,995.91
2018-03-11T13:52:45.467Z,995.89
2018-03-11T13:54:07.487Z,995.83
2018-03-11T13:55:29.755Z,995.9
2018-03-11T13:56:52.111Z,995.81
2018-03-11T13:58:14.017Z,995.8
2018-03-11T13:59:36.388Z,995.73
2018-03-11T14:00:58.098Z,995.76
2018-03-11T14:02:19.782Z,995.76
2018-03-11T14:03:41.482Z,995.68
2018-03-11T14:05:03.680Z,995.65
2018-03-11T14:06:25.601Z,995.66
2018-03-11T14:07:47.611Z,995.66
2018-03-11T14:09:09.566Z,995.64
2018-03-11T14:10:31.762Z,995.61
2018-03-11T14:11:53.959Z,995.62
2018-03-11T14:13:16.155Z,995.61
2018-03-11T14:14:38.077Z,995.6
2018-03-11T14:15:59.978Z,995.56
2018-03-11T14:17:22.234Z,995.53
2018-03-11T14:18:43.886Z,995.56
2018-03-11T14:20:06.104Z,995.53
2018-03-11T14:21:28.025Z,995.49
2018-03-11T14:22:49.418Z,995.48
2018-03-11T14:24:11.044Z,995.47
2018-03-11T14:25:32.980Z,995.42
2018-03-11T14:26:54.377Z,995.41
2018-03-11T14:28:16.672Z,995.39
2018-03-11T14:29:38.731Z,995.34
2018-03-11T14:31:00.675Z,995.31
2018-03-11T14:32:22.876Z,995.3
2018-03-11T14:33:45.166Z,995.23
2018-03-11T14:35:07.355Z,995.27
2018-03-11T14:36:29.554Z,995.27
2018-03-11T14:37:51.512Z,995.3
2018-03-11T14:39:13.694Z,995.24
2018-03-11T14:40:35.841Z,995.25
2018-03-11T14:41:58.315Z,995.17
2018-03-11T14:43:20.274Z,995.18
2018-03-11T14:44:41.956Z,995.11
2018-03-11T14:46:04.167Z,995.05
2018-03-11T14:47:26.346Z,995.08
2018-03-11T14:48:47.994Z,994.99
2018-03-11T14:50:09.994Z,995.04
2018-03-11T14:51:32.173Z,994.99
2018-03-11T14:52:54.031Z,995.02
2018-03-11T14:54:15.684Z,994.92
2018-03-11T14:55:37.857Z,994.91
2018-03-11T14:56:59.795Z,994.87
2018-03-11T14:58:21.825Z,994.9
2018-03-11T14:59:44.075Z,994.84
2018-03-11T15:01:05.735Z,994.92
2018-03-11T15:02:27.415Z,994.85
2018-03-11T15:03:49.447Z,994.84
2018-03-11T15:05:11.353Z,994.82
2018-03-11T15:06:33.005Z,994.92
2018-03-11T15:07:54.952Z,994.79
2018-03-11T15:09:16.599Z,994.92
2018-03-11T15:10:38.951Z,994.86
2018-03-11T15:12:00.602Z,994.89
2018-03-11T15:13:22.396Z,994.82
2018-03-11T15:14:44.675Z,994.86
2018-03-11T15:16:06.317Z,994.84
2018-03-11T15:17:28.995Z,994.9
2018-03-11T15:18:51.203Z,994.84
2018-03-11T15:20:13.230Z,994.83
2018-03-11T15:21:35.444Z,994.77
2018-03-11T15:22:57.624Z,994.83
2018-03-11T15:24:18.744Z,994.79
2018-03-11T15:25:40.925Z,994.82
2018-03-11T15:27:02.699Z,994.82
2018-03-11T15:28:24.889Z,994.78
2018-03-11T15:29:46.338Z,994.78
2018-03-11T15:31:08.195Z,994.79
2018-03-11T15:32:30.176Z,994.81
2018-03-11T15:33:52.376Z,994.84
2018-03-11T15:35:14.624Z,994.78
2018-03-11T15:36:36.800Z,994.78
2018-03-11T15:37:59.066Z,994.71
2018-03-11T15:39:20.964Z,994.68
2018-03-11T15:40:42.896Z,994.71
2018-03-11T15:42:05.095Z,994.68
2018-03-11T15:43:26.514Z,994.69
2018-03-11T15:44:48.233Z,994.7
2018-03-11T15:46:10.398Z,994.65
2018-03-11T15:47:32.435Z,994.72
2018-03-11T15:48:53.800Z,994.71
2018-03-11T15:50:15.752Z,994.65
2018-03-11T15:51:37.685Z,994.67
2018-03-11T15:52:59.687Z,994.71
2018-03-11T15:54:21.896Z,994.68
2018-03-11T15:55:43.993Z,994.72
2018-03-11T15:57:05.989Z,994.7
2018-03-11T15:58:28.274Z,994.75
2018-03-11T15:59:50.465Z,994.8
2018-03-11T16:01:12.646Z,994.79
2018-03-11T16:02:34.696Z,994.78
2018-03-11T16:03:56.618Z,994.82
2018-03-11T16:05:18.318Z,994.76
2018-03-11T16:06:40.508Z,994.75
2018-03-11T16:08:02.425Z,994.77
2018-03-11T16:09:24.415Z,994.8
2018-03-11T16:10:46.653Z,994.76
2018-03-11T16:12:08.847Z,994.77
2018-03-11T16:13:31.025Z,994.87
2018-03-11T16:14:53.266Z,994.85
2018-03-11T16:16:15.514Z,994.82
2018-03-11T16:17:37.687Z,994.88
2018-03-11T16:18:59.646Z,994.86
2018-03-11T16:20:21.608Z,994.9
2018-03-11T16:21:43.957Z,994.93
2018-03-11T16:23:06.005Z,994.93
2018-03-11T16:24:28.947Z,994.93
2018-03-11T16:25:56.459Z,994.92
2018-03-11T16:27:18.256Z,994.92
2018-03-11T16:28:39.996Z,994.91
2018-03-11T16:30:01.631Z,994.95
2018-03-11T16:31:23.868Z,994.96
2018-03-11T16:32:45.817Z,994.94
2018-03-11T16:34:08.113Z,994.97
2018-03-11T16:35:30.123Z,994.97
2018-03-11T16:36:52.425Z,994.97
2018-03-11T16:38:14.344Z,994.96
2018-03-11T16:39:36.271Z,994.99
2018-03-11T16:40:58.512Z,994.97
2018-03-11T16:42:20.416Z,995
2018-03-11T16:43:42.348Z,994.96
2018-03-11T16:45:04.696Z,994.97
2018-03-11T16:46:26.734Z,994.97
2018-03-11T16:47:48.389Z,995.01
2018-03-11T16:49:10.577Z,995.05
2018-03-11T16:50:32.969Z,995.04
2018-03-11T16:51:55.006Z,995.05
2018-03-11T16:53:17.244Z,994.98
2018-03-11T16:54:39.206Z,995.02
2018-03-11T16:56:00.896Z,995.03
2018-03-11T16:57:23.192Z,995.02
2018-03-11T16:58:45.206Z,995.12